sensor_id;sensor_type;location;lat;lon;timestamp;P1;durP1;ratioP1;P2;durP2;ratioP2
14603;SDS011;7388;51.078;13.740;2023-02-18T00:02:13;3.23;;;1.03;;
14603;SDS011;7388;51.078;13.740;2023-02-18T00:04:39;5.63;;;1.30;;
14603;SDS011;7388;51.078;13.740;2023-02-18T00:07:04;7.23;;;2.10;;
14603;SDS011;7388;51.078;13.740;2023-02-18T00:09:30;4.33;;;2.00;;
14603;SDS011;7388;51.078;13.740;2023-02-18T00:11:56;6.13;;;1.33;;
14603;SDS011;7388;51.078;13.740;2023-02-18T00:14:22;6.47;;;1.40;;
14603;SDS011;7388;51.078;13.740;2023-02-18T00:16:47;3.33;;;1.37;;
14603;SDS011;7388;51.078;13.740;2023-02-18T00:19:15;3.20;;;1.40;;
14603;SDS011;7388;51.078;13.740;2023-02-18T00:21:42;4.45;;;1.15;;
14603;SDS011;7388;51.078;13.740;2023-02-18T00:24:08;5.35;;;1.35;;
14603;SDS011;7388;51.078;13.740;2023-02-18T00:26:36;4.25;;;1.77;;
14603;SDS011;7388;51.078;13.740;2023-02-18T00:29:02;2.90;;;1.23;;
14603;SDS011;7388;51.078;13.740;2023-02-18T00:31:29;5.50;;;1.63;;
14603;SDS011;7388;51.078;13.740;2023-02-18T00:33:57;3.05;;;1.40;;
14603;SDS011;7388;51.078;13.740;2023-02-18T00:36:23;4.80;;;1.63;;
14603;SDS011;7388;51.078;13.740;2023-02-18T00:38:52;2.35;;;1.13;;
14603;SDS011;7388;51.078;13.740;2023-02-18T00:41:20;1.63;;;1.02;;
14603;SDS011;7388;51.078;13.740;2023-02-18T00:43:47;5.53;;;1.10;;
14603;SDS011;7388;51.078;13.740;2023-02-18T00:46:12;6.10;;;1.33;;
14603;SDS011;7388;51.078;13.740;2023-02-18T00:48:38;6.23;;;1.60;;
14603;SDS011;7388;51.078;13.740;2023-02-18T00:51:05;4.50;;;1.87;;
14603;SDS011;7388;51.078;13.740;2023-02-18T00:53:32;7.80;;;2.00;;
14603;SDS011;7388;51.078;13.740;2023-02-18T00:55:58;5.45;;;1.83;;
14603;SDS011;7388;51.078;13.740;2023-02-18T00:58:24;4.47;;;1.97;;
14603;SDS011;7388;51.078;13.740;2023-02-18T01:00:50;5.80;;;1.93;;
14603;SDS011;7388;51.078;13.740;2023-02-18T01:03:16;3.92;;;1.40;;
14603;SDS011;7388;51.078;13.740;2023-02-18T01:05:42;3.10;;;1.70;;
14603;SDS011;7388;51.078;13.740;2023-02-18T01:08:08;3.50;;;1.73;;
14603;SDS011;7388;51.078;13.740;2023-02-18T01:10:35;4.45;;;2.50;;
14603;SDS011;7388;51.078;13.740;2023-02-18T01:13:04;4.38;;;1.67;;
14603;SDS011;7388;51.078;13.740;2023-02-18T01:15:30;6.03;;;2.10;;
14603;SDS011;7388;51.078;13.740;2023-02-18T01:17:56;2.73;;;1.70;;
14603;SDS011;7388;51.078;13.740;2023-02-18T01:20:22;5.77;;;1.53;;
14603;SDS011;7388;51.078;13.740;2023-02-18T01:22:48;2.78;;;1.75;;
14603;SDS011;7388;51.078;13.740;2023-02-18T01:25:17;8.02;;;1.98;;
14603;SDS011;7388;51.078;13.740;2023-02-18T01:27:42;4.37;;;1.40;;
14603;SDS011;7388;51.078;13.740;2023-02-18T01:30:10;2.80;;;1.33;;
14603;SDS011;7388;51.078;13.740;2023-02-18T01:32:38;5.13;;;1.90;;
14603;SDS011;7388;51.078;13.740;2023-02-18T01:35:04;4.30;;;1.60;;
14603;SDS011;7388;51.078;13.740;2023-02-18T01:37:31;7.53;;;1.80;;
14603;SDS011;7388;51.078;13.740;2023-02-18T01:39:57;3.10;;;1.50;;
14603;SDS011;7388;51.078;13.740;2023-02-18T01:42:24;3.58;;;1.15;;
14603;SDS011;7388;51.078;13.740;2023-02-18T01:44:52;2.90;;;1.40;;
14603;SDS011;7388;51.078;13.740;2023-02-18T01:47:18;4.80;;;2.17;;
14603;SDS011;7388;51.078;13.740;2023-02-18T01:49:45;4.77;;;1.77;;
14603;SDS011;7388;51.078;13.740;2023-02-18T01:52:16;4.90;;;1.70;;
14603;SDS011;7388;51.078;13.740;2023-02-18T01:54:46;3.10;;;1.02;;
14603;SDS011;7388;51.078;13.740;2023-02-18T01:57:26;3.45;;;1.55;;
14603;SDS011;7388;51.078;13.740;2023-02-18T02:00:06;4.43;;;1.85;;
14603;SDS011;7388;51.078;13.740;2023-02-18T02:02:36;2.33;;;1.55;;
14603;SDS011;7388;51.078;13.740;2023-02-18T02:05:06;3.72;;;1.38;;
14603;SDS011;7388;51.078;13.740;2023-02-18T02:07:32;7.10;;;2.50;;
14603;SDS011;7388;51.078;13.740;2023-02-18T02:09:58;5.37;;;2.00;;
14603;SDS011;7388;51.078;13.740;2023-02-18T02:15:21;6.97;;;2.30;;
14603;SDS011;7388;51.078;13.740;2023-02-18T02:23:33;4.57;;;2.50;;
14603;SDS011;7388;51.078;13.740;2023-02-18T02:26:29;3.25;;;1.50;;
14603;SDS011;7388;51.078;13.740;2023-02-18T02:37:35;3.63;;;2.00;;
14603;SDS011;7388;51.078;13.740;2023-02-18T02:40:14;2.50;;;1.60;;
14603;SDS011;7388;51.078;13.740;2023-02-18T02:43:05;5.68;;;1.55;;
14603;SDS011;7388;51.078;13.740;2023-02-18T02:51:21;4.53;;;1.60;;
14603;SDS011;7388;51.078;13.740;2023-02-18T02:56:39;5.82;;;1.40;;
14603;SDS011;7388;51.078;13.740;2023-02-18T02:59:07;3.83;;;1.60;;
14603;SDS011;7388;51.078;13.740;2023-02-18T03:07:13;4.63;;;1.70;;
14603;SDS011;7388;51.078;13.740;2023-02-18T03:18:01;8.80;;;2.55;;
14603;SDS011;7388;51.078;13.740;2023-02-18T03:20:36;7.55;;;2.38;;
14603;SDS011;7388;51.078;13.740;2023-02-18T03:23:08;12.65;;;1.77;;
14603;SDS011;7388;51.078;13.740;2023-02-18T03:25:40;7.22;;;1.52;;
14603;SDS011;7388;51.078;13.740;2023-02-18T03:28:13;5.28;;;1.70;;
14603;SDS011;7388;51.078;13.740;2023-02-18T03:33:13;5.40;;;1.52;;
14603;SDS011;7388;51.078;13.740;2023-02-18T03:35:41;3.55;;;1.30;;
14603;SDS011;7388;51.078;13.740;2023-02-18T03:40:35;5.80;;;1.63;;
14603;SDS011;7388;51.078;13.740;2023-02-18T03:43:00;4.90;;;1.53;;
14603;SDS011;7388;51.078;13.740;2023-02-18T03:45:26;4.67;;;1.30;;
14603;SDS011;7388;51.078;13.740;2023-02-18T03:47:52;7.60;;;1.50;;
14603;SDS011;7388;51.078;13.740;2023-02-18T03:50:18;4.97;;;1.47;;
14603;SDS011;7388;51.078;13.740;2023-02-18T03:52:44;5.83;;;1.30;;
14603;SDS011;7388;51.078;13.740;2023-02-18T03:55:10;6.87;;;1.77;;
14603;SDS011;7388;51.078;13.740;2023-02-18T03:57:35;5.50;;;1.97;;
14603;SDS011;7388;51.078;13.740;2023-02-18T04:00:02;7.00;;;1.80;;
14603;SDS011;7388;51.078;13.740;2023-02-18T04:02:30;4.32;;;1.67;;
14603;SDS011;7388;51.078;13.740;2023-02-18T04:04:57;4.65;;;1.70;;
14603;SDS011;7388;51.078;13.740;2023-02-18T04:07:23;7.10;;;1.80;;
14603;SDS011;7388;51.078;13.740;2023-02-18T04:09:48;4.80;;;1.40;;
14603;SDS011;7388;51.078;13.740;2023-02-18T04:12:14;6.60;;;2.43;;
14603;SDS011;7388;51.078;13.740;2023-02-18T04:14:40;3.77;;;1.80;;
14603;SDS011;7388;51.078;13.740;2023-02-18T04:17:05;7.53;;;2.20;;
14603;SDS011;7388;51.078;13.740;2023-02-18T04:19:31;4.03;;;1.80;;
14603;SDS011;7388;51.078;13.740;2023-02-18T04:21:57;5.80;;;2.17;;
14603;SDS011;7388;51.078;13.740;2023-02-18T04:24:22;4.43;;;1.80;;
14603;SDS011;7388;51.078;13.740;2023-02-18T04:26:48;6.03;;;1.93;;
14603;SDS011;7388;51.078;13.740;2023-02-18T04:29:14;4.60;;;1.90;;
14603;SDS011;7388;51.078;13.740;2023-02-18T04:31:40;3.80;;;1.80;;
14603;SDS011;7388;51.078;13.740;2023-02-18T04:34:05;4.20;;;1.63;;
14603;SDS011;7388;51.078;13.740;2023-02-18T04:36:32;11.77;;;2.30;;
14603;SDS011;7388;51.078;13.740;2023-02-18T04:38:58;6.38;;;2.53;;
14603;SDS011;7388;51.078;13.740;2023-02-18T04:41:24;6.15;;;2.45;;
14603;SDS011;7388;51.078;13.740;2023-02-18T04:43:50;6.70;;;2.70;;
14603;SDS011;7388;51.078;13.740;2023-02-18T04:46:16;8.00;;;2.10;;
14603;SDS011;7388;51.078;13.740;2023-02-18T04:48:42;5.45;;;1.75;;
14603;SDS011;7388;51.078;13.740;2023-02-18T04:51:07;4.70;;;1.70;;
14603;SDS011;7388;51.078;13.740;2023-02-18T04:53:33;5.20;;;1.80;;
14603;SDS011;7388;51.078;13.740;2023-02-18T04:55:59;4.50;;;1.83;;
14603;SDS011;7388;51.078;13.740;2023-02-18T04:58:25;10.73;;;2.77;;
14603;SDS011;7388;51.078;13.740;2023-02-18T05:00:51;6.97;;;2.60;;
14603;SDS011;7388;51.078;13.740;2023-02-18T05:03:18;8.90;;;3.63;;
14603;SDS011;7388;51.078;13.740;2023-02-18T05:05:44;8.48;;;2.22;;
14603;SDS011;7388;51.078;13.740;2023-02-18T05:08:10;6.50;;;2.20;;
14603;SDS011;7388;51.078;13.740;2023-02-18T05:10:36;5.97;;;2.75;;
14603;SDS011;7388;51.078;13.740;2023-02-18T05:13:03;4.90;;;2.53;;
14603;SDS011;7388;51.078;13.740;2023-02-18T05:15:29;10.05;;;3.63;;
14603;SDS011;7388;51.078;13.740;2023-02-18T05:17:54;10.10;;;2.47;;
14603;SDS011;7388;51.078;13.740;2023-02-18T05:20:20;6.23;;;2.80;;
14603;SDS011;7388;51.078;13.740;2023-02-18T05:22:46;5.97;;;2.87;;
14603;SDS011;7388;51.078;13.740;2023-02-18T05:25:11;5.47;;;2.50;;
14603;SDS011;7388;51.078;13.740;2023-02-18T05:27:37;5.90;;;2.60;;
14603;SDS011;7388;51.078;13.740;2023-02-18T05:30:03;10.43;;;3.00;;
14603;SDS011;7388;51.078;13.740;2023-02-18T05:32:29;8.27;;;2.97;;
14603;SDS011;7388;51.078;13.740;2023-02-18T05:34:55;5.47;;;2.70;;
14603;SDS011;7388;51.078;13.740;2023-02-18T05:37:21;14.87;;;5.40;;
14603;SDS011;7388;51.078;13.740;2023-02-18T05:39:46;5.60;;;2.93;;
14603;SDS011;7388;51.078;13.740;2023-02-18T05:42:12;4.97;;;3.33;;
14603;SDS011;7388;51.078;13.740;2023-02-18T05:44:38;9.17;;;2.70;;
14603;SDS011;7388;51.078;13.740;2023-02-18T05:47:05;8.90;;;2.83;;
14603;SDS011;7388;51.078;13.740;2023-02-18T05:49:34;13.00;;;3.28;;
14603;SDS011;7388;51.078;13.740;2023-02-18T05:52:00;10.50;;;3.50;;
14603;SDS011;7388;51.078;13.740;2023-02-18T05:54:27;5.05;;;2.92;;
14603;SDS011;7388;51.078;13.740;2023-02-18T05:56:53;5.75;;;2.60;;
14603;SDS011;7388;51.078;13.740;2023-02-18T05:59:18;6.80;;;3.20;;
14603;SDS011;7388;51.078;13.740;2023-02-18T06:01:45;5.30;;;3.07;;
14603;SDS011;7388;51.078;13.740;2023-02-18T06:04:11;9.60;;;4.13;;
14603;SDS011;7388;51.078;13.740;2023-02-18T06:06:37;9.85;;;3.20;;
14603;SDS011;7388;51.078;13.740;2023-02-18T06:09:03;5.75;;;3.25;;
14603;SDS011;7388;51.078;13.740;2023-02-18T06:11:30;11.43;;;3.85;;
14603;SDS011;7388;51.078;13.740;2023-02-18T06:13:56;6.07;;;3.13;;
14603;SDS011;7388;51.078;13.740;2023-02-18T06:16:23;10.98;;;3.55;;
14603;SDS011;7388;51.078;13.740;2023-02-18T06:18:49;6.38;;;4.28;;
14603;SDS011;7388;51.078;13.740;2023-02-18T06:21:15;7.90;;;4.20;;
14603;SDS011;7388;51.078;13.740;2023-02-18T06:23:41;19.63;;;4.37;;
14603;SDS011;7388;51.078;13.740;2023-02-18T06:26:06;10.37;;;4.50;;
14603;SDS011;7388;51.078;13.740;2023-02-18T06:28:32;8.02;;;3.63;;
14603;SDS011;7388;51.078;13.740;2023-02-18T06:30:58;8.03;;;4.00;;
14603;SDS011;7388;51.078;13.740;2023-02-18T06:33:24;7.87;;;3.90;;
14603;SDS011;7388;51.078;13.740;2023-02-18T06:36:00;13.60;;;5.20;;
14603;SDS011;7388;51.078;13.740;2023-02-18T06:38:31;6.38;;;3.50;;
14603;SDS011;7388;51.078;13.740;2023-02-18T06:40:58;10.23;;;3.97;;
14603;SDS011;7388;51.078;13.740;2023-02-18T06:43:24;7.97;;;4.90;;
14603;SDS011;7388;51.078;13.740;2023-02-18T06:45:50;7.67;;;3.93;;
14603;SDS011;7388;51.078;13.740;2023-02-18T06:48:16;9.45;;;5.10;;
14603;SDS011;7388;51.078;13.740;2023-02-18T06:50:42;14.93;;;6.10;;
14603;SDS011;7388;51.078;13.740;2023-02-18T06:53:08;9.95;;;5.80;;
14603;SDS011;7388;51.078;13.740;2023-02-18T06:55:34;7.13;;;4.70;;
14603;SDS011;7388;51.078;13.740;2023-02-18T06:58:00;8.23;;;5.20;;
14603;SDS011;7388;51.078;13.740;2023-02-18T07:00:25;9.50;;;5.90;;
14603;SDS011;7388;51.078;13.740;2023-02-18T07:02:51;5.93;;;4.50;;
14603;SDS011;7388;51.078;13.740;2023-02-18T07:05:17;11.60;;;5.83;;
14603;SDS011;7388;51.078;13.740;2023-02-18T07:07:42;10.90;;;5.97;;
14603;SDS011;7388;51.078;13.740;2023-02-18T07:10:08;13.90;;;6.83;;
14603;SDS011;7388;51.078;13.740;2023-02-18T07:12:34;12.38;;;5.88;;
14603;SDS011;7388;51.078;13.740;2023-02-18T07:15:00;22.80;;;7.53;;
14603;SDS011;7388;51.078;13.740;2023-02-18T07:17:26;8.77;;;6.20;;
14603;SDS011;7388;51.078;13.740;2023-02-18T07:19:52;12.13;;;7.23;;
14603;SDS011;7388;51.078;13.740;2023-02-18T07:22:19;10.98;;;6.43;;
14603;SDS011;7388;51.078;13.740;2023-02-18T07:24:45;9.50;;;6.60;;
14603;SDS011;7388;51.078;13.740;2023-02-18T07:27:16;11.95;;;7.20;;
14603;SDS011;7388;51.078;13.740;2023-02-18T07:29:42;17.67;;;7.47;;
14603;SDS011;7388;51.078;13.740;2023-02-18T07:32:09;11.90;;;7.43;;
14603;SDS011;7388;51.078;13.740;2023-02-18T07:34:36;9.90;;;5.90;;
14603;SDS011;7388;51.078;13.740;2023-02-18T07:37:02;9.47;;;6.93;;
14603;SDS011;7388;51.078;13.740;2023-02-18T07:39:33;13.52;;;6.68;;
14603;SDS011;7388;51.078;13.740;2023-02-18T07:42:06;15.30;;;6.35;;
14603;SDS011;7388;51.078;13.740;2023-02-18T07:44:32;18.15;;;9.15;;
14603;SDS011;7388;51.078;13.740;2023-02-18T07:46:58;11.00;;;7.20;;
14603;SDS011;7388;51.078;13.740;2023-02-18T07:49:24;12.63;;;6.43;;
14603;SDS011;7388;51.078;13.740;2023-02-18T07:51:50;13.03;;;8.50;;
14603;SDS011;7388;51.078;13.740;2023-02-18T07:54:16;8.13;;;7.30;;
14603;SDS011;7388;51.078;13.740;2023-02-18T07:56:42;15.52;;;7.88;;
14603;SDS011;7388;51.078;13.740;2023-02-18T07:59:08;14.50;;;8.25;;
14603;SDS011;7388;51.078;13.740;2023-02-18T08:01:35;14.73;;;9.27;;
14603;SDS011;7388;51.078;13.740;2023-02-18T08:04:00;11.10;;;7.00;;
14603;SDS011;7388;51.078;13.740;2023-02-18T08:06:36;15.53;;;8.40;;
14603;SDS011;7388;51.078;13.740;2023-02-18T08:09:03;14.45;;;8.20;;
14603;SDS011;7388;51.078;13.740;2023-02-18T08:11:30;8.20;;;5.82;;
14603;SDS011;7388;51.078;13.740;2023-02-18T08:13:56;9.57;;;7.97;;
14603;SDS011;7388;51.078;13.740;2023-02-18T08:16:22;14.10;;;8.27;;
14603;SDS011;7388;51.078;13.740;2023-02-18T08:18:48;10.80;;;7.28;;
14603;SDS011;7388;51.078;13.740;2023-02-18T08:21:16;9.25;;;7.55;;
14603;SDS011;7388;51.078;13.740;2023-02-18T08:23:42;11.27;;;7.20;;
14603;SDS011;7388;51.078;13.740;2023-02-18T08:26:09;10.70;;;7.80;;
14603;SDS011;7388;51.078;13.740;2023-02-18T08:28:35;13.53;;;7.83;;
14603;SDS011;7388;51.078;13.740;2023-02-18T08:31:00;11.07;;;8.60;;
14603;SDS011;7388;51.078;13.740;2023-02-18T08:33:27;15.37;;;8.83;;
14603;SDS011;7388;51.078;13.740;2023-02-18T08:35:53;9.93;;;7.82;;
14603;SDS011;7388;51.078;13.740;2023-02-18T08:38:20;10.18;;;7.25;;
14603;SDS011;7388;51.078;13.740;2023-02-18T08:40:47;11.52;;;7.82;;
14603;SDS011;7388;51.078;13.740;2023-02-18T08:43:14;11.52;;;8.10;;
14603;SDS011;7388;51.078;13.740;2023-02-18T08:45:41;12.15;;;8.25;;
14603;SDS011;7388;51.078;13.740;2023-02-18T08:48:08;9.57;;;7.05;;
14603;SDS011;7388;51.078;13.740;2023-02-18T08:50:35;12.68;;;8.93;;
14603;SDS011;7388;51.078;13.740;2023-02-18T08:53:01;16.40;;;9.27;;
14603;SDS011;7388;51.078;13.740;2023-02-18T08:55:31;14.90;;;9.38;;
14603;SDS011;7388;51.078;13.740;2023-02-18T08:57:58;14.90;;;8.43;;
14603;SDS011;7388;51.078;13.740;2023-02-18T09:00:24;13.40;;;9.52;;
14603;SDS011;7388;51.078;13.740;2023-02-18T09:02:51;13.13;;;9.23;;
14603;SDS011;7388;51.078;13.740;2023-02-18T09:05:16;16.33;;;9.80;;
14603;SDS011;7388;51.078;13.740;2023-02-18T09:07:42;12.83;;;10.20;;
14603;SDS011;7388;51.078;13.740;2023-02-18T09:10:09;13.97;;;11.47;;
14603;SDS011;7388;51.078;13.740;2023-02-18T09:12:35;13.68;;;9.88;;
14603;SDS011;7388;51.078;13.740;2023-02-18T09:15:01;18.20;;;9.50;;
14603;SDS011;7388;51.078;13.740;2023-02-18T09:17:27;17.83;;;10.10;;
14603;SDS011;7388;51.078;13.740;2023-02-18T09:19:53;14.88;;;9.32;;
14603;SDS011;7388;51.078;13.740;2023-02-18T09:22:18;16.00;;;10.40;;
14603;SDS011;7388;51.078;13.740;2023-02-18T09:24:44;16.33;;;10.10;;
14603;SDS011;7388;51.078;13.740;2023-02-18T09:27:10;13.03;;;9.10;;
14603;SDS011;7388;51.078;13.740;2023-02-18T09:29:37;13.52;;;9.98;;
14603;SDS011;7388;51.078;13.740;2023-02-18T09:32:04;14.90;;;10.00;;
14603;SDS011;7388;51.078;13.740;2023-02-18T09:34:31;14.95;;;10.38;;
14603;SDS011;7388;51.078;13.740;2023-02-18T09:36:57;24.77;;;10.87;;
14603;SDS011;7388;51.078;13.740;2023-02-18T09:39:23;17.97;;;10.23;;
14603;SDS011;7388;51.078;13.740;2023-02-18T09:41:49;15.77;;;10.17;;
14603;SDS011;7388;51.078;13.740;2023-02-18T09:44:22;14.18;;;11.32;;
14603;SDS011;7388;51.078;13.740;2023-02-18T09:46:53;15.68;;;11.75;;
14603;SDS011;7388;51.078;13.740;2023-02-18T09:49:27;15.43;;;10.95;;
14603;SDS011;7388;51.078;13.740;2023-02-18T09:51:58;12.98;;;8.88;;
14603;SDS011;7388;51.078;13.740;2023-02-18T09:54:47;16.77;;;10.00;;
14603;SDS011;7388;51.078;13.740;2023-02-18T09:59:56;11.85;;;9.20;;
14603;SDS011;7388;51.078;13.740;2023-02-18T10:02:29;8.63;;;7.03;;
14603;SDS011;7388;51.078;13.740;2023-02-18T10:04:56;10.90;;;8.05;;
14603;SDS011;7388;51.078;13.740;2023-02-18T10:07:26;12.32;;;7.80;;
14603;SDS011;7388;51.078;13.740;2023-02-18T10:09:55;10.45;;;7.97;;
14603;SDS011;7388;51.078;13.740;2023-02-18T10:12:24;8.40;;;4.90;;
14603;SDS011;7388;51.078;13.740;2023-02-18T10:14:51;6.55;;;3.42;;
14603;SDS011;7388;51.078;13.740;2023-02-18T10:17:20;3.45;;;2.08;;
14603;SDS011;7388;51.078;13.740;2023-02-18T10:19:50;4.15;;;1.75;;
14603;SDS011;7388;51.078;13.740;2023-02-18T10:22:18;2.47;;;1.75;;
14603;SDS011;7388;51.078;13.740;2023-02-18T10:24:56;2.25;;;1.70;;
14603;SDS011;7388;51.078;13.740;2023-02-18T10:27:25;2.08;;;1.40;;
14603;SDS011;7388;51.078;13.740;2023-02-18T10:30:42;4.07;;;2.40;;
14603;SDS011;7388;51.078;13.740;2023-02-18T10:32:48;2.45;;;1.40;;
14603;SDS011;7388;51.078;13.740;2023-02-18T10:40:52;2.50;;;1.35;;
14603;SDS011;7388;51.078;13.740;2023-02-18T10:43:49;1.60;;;1.20;;
14603;SDS011;7388;51.078;13.740;2023-02-18T10:49:58;2.33;;;1.27;;
14603;SDS011;7388;51.078;13.740;2023-02-18T10:52:47;2.30;;;1.23;;
14603;SDS011;7388;51.078;13.740;2023-02-18T10:55:15;2.42;;;1.05;;
14603;SDS011;7388;51.078;13.740;2023-02-18T10:57:52;1.90;;;1.02;;
14603;SDS011;7388;51.078;13.740;2023-02-18T11:00:21;2.17;;;0.93;;
14603;SDS011;7388;51.078;13.740;2023-02-18T11:05:35;1.50;;;0.90;;
14603;SDS011;7388;51.078;13.740;2023-02-18T11:08:03;1.60;;;1.10;;
14603;SDS011;7388;51.078;13.740;2023-02-18T11:10:37;2.05;;;0.80;;
14603;SDS011;7388;51.078;13.740;2023-02-18T11:13:06;1.60;;;0.85;;
14603;SDS011;7388;51.078;13.740;2023-02-18T11:15:34;3.45;;;0.90;;
14603;SDS011;7388;51.078;13.740;2023-02-18T11:18:27;1.40;;;0.68;;
14603;SDS011;7388;51.078;13.740;2023-02-18T11:20:55;2.08;;;0.88;;
14603;SDS011;7388;51.078;13.740;2023-02-18T11:23:26;2.10;;;1.05;;
14603;SDS011;7388;51.078;13.740;2023-02-18T11:25:54;1.30;;;0.70;;
14603;SDS011;7388;51.078;13.740;2023-02-18T11:28:27;1.65;;;1.10;;
14603;SDS011;7388;51.078;13.740;2023-02-18T11:31:00;1.15;;;0.52;;
14603;SDS011;7388;51.078;13.740;2023-02-18T11:36:16;1.33;;;0.80;;
14603;SDS011;7388;51.078;13.740;2023-02-18T11:38:55;1.38;;;0.55;;
14603;SDS011;7388;51.078;13.740;2023-02-18T11:41:39;1.40;;;0.70;;
14603;SDS011;7388;51.078;13.740;2023-02-18T11:44:50;1.80;;;0.77;;
14603;SDS011;7388;51.078;13.740;2023-02-18T11:47:08;1.90;;;0.60;;
14603;SDS011;7388;51.078;13.740;2023-02-18T11:50:13;1.55;;;1.10;;
14603;SDS011;7388;51.078;13.740;2023-02-18T11:52:46;1.67;;;0.80;;
14603;SDS011;7388;51.078;13.740;2023-02-18T11:55:18;1.30;;;0.70;;
14603;SDS011;7388;51.078;13.740;2023-02-18T11:58:04;3.08;;;1.30;;
14603;SDS011;7388;51.078;13.740;2023-02-18T12:00:36;1.50;;;0.77;;
14603;SDS011;7388;51.078;13.740;2023-02-18T12:03:51;1.88;;;0.80;;
14603;SDS011;7388;51.078;13.740;2023-02-18T12:06:15;1.20;;;0.75;;
14603;SDS011;7388;51.078;13.740;2023-02-18T12:08:48;1.80;;;1.00;;
14603;SDS011;7388;51.078;13.740;2023-02-18T12:11:35;2.08;;;0.80;;
14603;SDS011;7388;51.078;13.740;2023-02-18T12:14:12;1.70;;;1.08;;
14603;SDS011;7388;51.078;13.740;2023-02-18T12:28:14;2.08;;;1.13;;
14603;SDS011;7388;51.078;13.740;2023-02-18T12:38:37;3.65;;;1.40;;
14603;SDS011;7388;51.078;13.740;2023-02-18T12:44:35;2.00;;;1.48;;
14603;SDS011;7388;51.078;13.740;2023-02-18T12:53:11;2.22;;;1.27;;
14603;SDS011;7388;51.078;13.740;2023-02-18T12:56:01;1.58;;;1.05;;
14603;SDS011;7388;51.078;13.740;2023-02-18T13:09:06;1.65;;;1.20;;
14603;SDS011;7388;51.078;13.740;2023-02-18T13:11:51;1.95;;;1.10;;
14603;SDS011;7388;51.078;13.740;2023-02-18T13:14:48;3.53;;;1.23;;
14603;SDS011;7388;51.078;13.740;2023-02-18T13:17:21;2.20;;;1.42;;
14603;SDS011;7388;51.078;13.740;2023-02-18T13:19:58;1.40;;;0.90;;
14603;SDS011;7388;51.078;13.740;2023-02-18T13:22:33;1.70;;;1.10;;
14603;SDS011;7388;51.078;13.740;2023-02-18T13:25:00;1.83;;;0.80;;
14603;SDS011;7388;51.078;13.740;2023-02-18T13:27:31;1.87;;;1.30;;
14603;SDS011;7388;51.078;13.740;2023-02-18T13:30:12;5.22;;;0.85;;
14603;SDS011;7388;51.078;13.740;2023-02-18T13:35:53;2.78;;;1.23;;
14603;SDS011;7388;51.078;13.740;2023-02-18T13:40:56;2.03;;;1.20;;
14603;SDS011;7388;51.078;13.740;2023-02-18T13:51:32;2.78;;;1.15;;
14603;SDS011;7388;51.078;13.740;2023-02-18T13:54:15;1.30;;;0.80;;
14603;SDS011;7388;51.078;13.740;2023-02-18T13:56:59;1.55;;;1.10;;
14603;SDS011;7388;51.078;13.740;2023-02-18T13:59:34;1.50;;;1.00;;
14603;SDS011;7388;51.078;13.740;2023-02-18T14:04:51;1.88;;;1.25;;
14603;SDS011;7388;51.078;13.740;2023-02-18T14:07:45;1.52;;;1.20;;
14603;SDS011;7388;51.078;13.740;2023-02-18T14:12:46;1.30;;;0.73;;
14603;SDS011;7388;51.078;13.740;2023-02-18T14:25:40;2.25;;;1.08;;
14603;SDS011;7388;51.078;13.740;2023-02-18T14:28:34;1.83;;;1.10;;
14603;SDS011;7388;51.078;13.740;2023-02-18T14:33:41;1.50;;;1.10;;
14603;SDS011;7388;51.078;13.740;2023-02-18T14:41:50;1.67;;;0.90;;
14603;SDS011;7388;51.078;13.740;2023-02-18T14:49:59;1.20;;;0.70;;
14603;SDS011;7388;51.078;13.740;2023-02-18T14:54:59;1.40;;;0.70;;
14603;SDS011;7388;51.078;13.740;2023-02-18T14:57:32;2.20;;;1.20;;
14603;SDS011;7388;51.078;13.740;2023-02-18T15:00:05;3.15;;;1.30;;
14603;SDS011;7388;51.078;13.740;2023-02-18T15:02:38;3.33;;;1.05;;
14603;SDS011;7388;51.078;13.740;2023-02-18T15:05:10;2.70;;;1.10;;
14603;SDS011;7388;51.078;13.740;2023-02-18T15:08:00;1.88;;;1.10;;
14603;SDS011;7388;51.078;13.740;2023-02-18T15:10:40;1.77;;;1.10;;
14603;SDS011;7388;51.078;13.740;2023-02-18T15:13:16;1.95;;;0.95;;
14603;SDS011;7388;51.078;13.740;2023-02-18T15:15:42;8.48;;;1.75;;
14603;SDS011;7388;51.078;13.740;2023-02-18T15:18:15;1.50;;;0.93;;
14603;SDS011;7388;51.078;13.740;2023-02-18T15:20:54;1.65;;;0.80;;
14603;SDS011;7388;51.078;13.740;2023-02-18T15:23:20;1.90;;;1.50;;
14603;SDS011;7388;51.078;13.740;2023-02-18T15:25:48;1.48;;;0.85;;
14603;SDS011;7388;51.078;13.740;2023-02-18T15:28:27;1.45;;;0.82;;
14603;SDS011;7388;51.078;13.740;2023-02-18T15:31:00;1.63;;;0.88;;
14603;SDS011;7388;51.078;13.740;2023-02-18T15:33:27;2.28;;;0.93;;
14603;SDS011;7388;51.078;13.740;2023-02-18T15:36:00;1.90;;;1.10;;
14603;SDS011;7388;51.078;13.740;2023-02-18T15:38:30;4.22;;;1.15;;
14603;SDS011;7388;51.078;13.740;2023-02-18T15:40:56;1.88;;;0.90;;
14603;SDS011;7388;51.078;13.740;2023-02-18T15:43:23;4.97;;;1.60;;
14603;SDS011;7388;51.078;13.740;2023-02-18T15:45:52;1.80;;;1.05;;
14603;SDS011;7388;51.078;13.740;2023-02-18T15:48:22;1.70;;;0.77;;
14603;SDS011;7388;51.078;13.740;2023-02-18T15:50:56;1.17;;;0.70;;
14603;SDS011;7388;51.078;13.740;2023-02-18T15:53:26;3.78;;;0.95;;
14603;SDS011;7388;51.078;13.740;2023-02-18T15:55:52;2.13;;;1.10;;
14603;SDS011;7388;51.078;13.740;2023-02-18T15:58:29;1.40;;;0.75;;
14603;SDS011;7388;51.078;13.740;2023-02-18T16:00:57;1.45;;;1.00;;
14603;SDS011;7388;51.078;13.740;2023-02-18T16:03:26;3.58;;;1.83;;
14603;SDS011;7388;51.078;13.740;2023-02-18T16:11:39;1.75;;;0.80;;
14603;SDS011;7388;51.078;13.740;2023-02-18T16:14:20;2.85;;;1.05;;
14603;SDS011;7388;51.078;13.740;2023-02-18T16:17:05;2.58;;;0.80;;
14603;SDS011;7388;51.078;13.740;2023-02-18T16:19:33;1.73;;;1.00;;
14603;SDS011;7388;51.078;13.740;2023-02-18T16:22:02;1.83;;;0.60;;
14603;SDS011;7388;51.078;13.740;2023-02-18T16:24:30;1.15;;;0.55;;
14603;SDS011;7388;51.078;13.740;2023-02-18T16:27:02;1.65;;;1.10;;
14603;SDS011;7388;51.078;13.740;2023-02-18T16:29:42;1.20;;;0.82;;
14603;SDS011;7388;51.078;13.740;2023-02-18T16:32:08;1.20;;;0.73;;
14603;SDS011;7388;51.078;13.740;2023-02-18T16:34:34;1.30;;;0.90;;
14603;SDS011;7388;51.078;13.740;2023-02-18T16:37:00;1.83;;;1.20;;
14603;SDS011;7388;51.078;13.740;2023-02-18T16:39:45;1.15;;;0.65;;
14603;SDS011;7388;51.078;13.740;2023-02-18T16:42:11;2.67;;;1.70;;
14603;SDS011;7388;51.078;13.740;2023-02-18T16:44:38;1.20;;;0.55;;
14603;SDS011;7388;51.078;13.740;2023-02-18T16:47:04;1.52;;;0.80;;
14603;SDS011;7388;51.078;13.740;2023-02-18T16:49:31;1.38;;;1.08;;
14603;SDS011;7388;51.078;13.740;2023-02-18T16:51:58;1.38;;;0.82;;
14603;SDS011;7388;51.078;13.740;2023-02-18T16:54:30;1.98;;;0.90;;
14603;SDS011;7388;51.078;13.740;2023-02-18T16:56:55;1.40;;;0.80;;
14603;SDS011;7388;51.078;13.740;2023-02-18T16:59:21;2.37;;;1.00;;
14603;SDS011;7388;51.078;13.740;2023-02-18T17:01:47;2.10;;;0.70;;
14603;SDS011;7388;51.078;13.740;2023-02-18T17:04:13;1.40;;;0.80;;
14603;SDS011;7388;51.078;13.740;2023-02-18T17:06:41;1.50;;;0.95;;
14603;SDS011;7388;51.078;13.740;2023-02-18T17:11:42;1.45;;;0.65;;
14603;SDS011;7388;51.078;13.740;2023-02-18T17:14:13;1.40;;;0.90;;
14603;SDS011;7388;51.078;13.740;2023-02-18T17:16:42;1.10;;;0.60;;
14603;SDS011;7388;51.078;13.740;2023-02-18T17:19:08;2.20;;;0.82;;
14603;SDS011;7388;51.078;13.740;2023-02-18T17:21:34;2.30;;;1.10;;
14603;SDS011;7388;51.078;13.740;2023-02-18T17:24:00;1.60;;;0.83;;
14603;SDS011;7388;51.078;13.740;2023-02-18T17:26:27;1.60;;;0.90;;
14603;SDS011;7388;51.078;13.740;2023-02-18T17:28:54;1.55;;;0.80;;
14603;SDS011;7388;51.078;13.740;2023-02-18T17:31:33;2.00;;;1.00;;
14603;SDS011;7388;51.078;13.740;2023-02-18T17:34:06;1.20;;;0.60;;